createdAt,value
2022-09-23T00:02:38.335Z,3.22
2022-09-23T00:07:39.641Z,3.58
2022-09-23T00:12:41.058Z,4.47
2022-09-23T00:17:43.129Z,3.47
2022-09-23T00:22:45.220Z,3.13
2022-09-23T00:27:46.456Z,2.47
2022-09-23T00:32:47.697Z,3.38
2022-09-23T00:37:49.066Z,2.85
2022-09-23T00:42:51.948Z,2.08
2022-09-23T00:47:56.917Z,2.65
2022-09-23T00:53:01.055Z,2.92
2022-09-23T00:58:05.870Z,2.60
2022-09-23T01:03:07.353Z,2.78
2022-09-23T01:08:11.523Z,2.30
2022-09-23T01:13:25.184Z,2.30
2022-09-23T01:19:01.134Z,2.95
2022-09-23T01:24:33.587Z,3.08
2022-09-23T01:30:03.809Z,4.03
2022-09-23T01:35:05.222Z,1.95
2022-09-23T01:40:23.878Z,2.72
2022-09-23T01:45:41.301Z,4.18
2022-09-23T01:50:57.338Z,4.25
2022-09-23T01:56:04.509Z,2.35
2022-09-23T02:01:08.325Z,4.13
2022-09-23T02:06:20.918Z,3.53
2022-09-23T02:11:23.506Z,3.33
2022-09-23T02:16:26.860Z,2.17
2022-09-23T02:21:34.101Z,3.60
2022-09-23T02:26:41.419Z,2.85
2022-09-23T02:32:02.691Z,2.17
2022-09-23T02:37:19.013Z,3.33
2022-09-23T02:42:25.435Z,2.85
2022-09-23T02:47:31.229Z,3.33
2022-09-23T02:52:33.310Z,3.05
2022-09-23T02:57:34.912Z,3.42
2022-09-23T03:02:57.469Z,4.88
2022-09-23T03:08:25.707Z,3.20
2022-09-23T03:13:50.749Z,4.28
2022-09-23T03:19:17.354Z,6.90
2022-09-23T03:24:21.743Z,4.10
2022-09-23T03:29:23.477Z,3.88
2022-09-23T03:34:30.741Z,3.05
2022-09-23T03:39:43.256Z,5.35
2022-09-23T03:44:46.226Z,3.75
2022-09-23T03:49:49.534Z,3.40
2022-09-23T03:54:52.173Z,3.97
2022-09-23T03:59:53.721Z,2.63
2022-09-23T04:04:55.924Z,3.15
2022-09-23T04:09:57.165Z,3.10
2022-09-23T04:14:58.466Z,3.28
2022-09-23T04:19:59.762Z,2.75
2022-09-23T04:25:00.996Z,2.83
2022-09-23T04:30:02.233Z,3.35
2022-09-23T04:35:04.280Z,2.03
2022-09-23T04:40:06.258Z,5.25
2022-09-23T04:45:08.157Z,3.00
2022-09-23T04:50:09.698Z,4.25
2022-09-23T04:55:11.429Z,2.90
2022-09-23T05:00:13.758Z,3.05
2022-09-23T05:05:20.060Z,3.03
2022-09-23T05:10:21.660Z,5.00
2022-09-23T05:15:22.935Z,3.70
2022-09-23T05:20:24.212Z,7.72
2022-09-23T05:25:25.489Z,3.13
2022-09-23T05:30:26.791Z,4.93
2022-09-23T05:35:28.238Z,3.58
2022-09-23T05:40:29.630Z,4.28
2022-09-23T05:45:32.006Z,4.47
2022-09-23T05:50:33.326Z,4.82
2022-09-23T05:55:34.785Z,3.42
2022-09-23T06:00:36.069Z,3.75
2022-09-23T06:05:37.357Z,5.50
2022-09-23T06:10:43.840Z,4.00
2022-09-23T06:15:45.268Z,4.45
2022-09-23T06:20:46.592Z,4.80
2022-09-23T06:25:48.301Z,3.45
2022-09-23T06:30:50.177Z,5.47
2022-09-23T06:35:59.964Z,3.38
2022-09-23T06:41:03.062Z,6.25
2022-09-23T06:46:05.938Z,8.10
2022-09-23T06:51:07.312Z,5.43
2022-09-23T06:56:11.317Z,5.60
2022-09-23T07:01:18.106Z,3.97
2022-09-23T07:06:19.898Z,6.13
2022-09-23T07:11:22.486Z,4.95
2022-09-23T07:16:24.099Z,5.22
2022-09-23T07:21:25.888Z,3.80
2022-09-23T07:26:27.203Z,4.22
2022-09-23T07:31:38.743Z,4.40
2022-09-23T07:36:41.660Z,4.43
2022-09-23T07:41:44.241Z,4.50
2022-09-23T07:46:45.651Z,4.25
2022-09-23T07:51:46.958Z,4.07
2022-09-23T07:56:48.230Z,4.07
2022-09-23T08:01:52.548Z,5.68
2022-09-23T08:06:57.476Z,7.60
2022-09-23T08:11:59.132Z,4.63
2022-09-23T08:17:00.413Z,4.95
2022-09-23T08:22:01.757Z,6.45
2022-09-23T08:27:03.389Z,7.85
2022-09-23T08:32:04.852Z,6.53
2022-09-23T08:37:11.117Z,4.57
2022-09-23T08:42:18.816Z,8.85
2022-09-23T08:47:32.089Z,6.07
2022-09-23T08:52:42.919Z,5.47
2022-09-23T08:58:23.902Z,5.68
2022-09-23T09:03:27.553Z,4.43
2022-09-23T09:08:38.762Z,4.28
2022-09-23T09:14:21.922Z,5.28
2022-09-23T09:19:52.454Z,8.20
2022-09-23T09:24:59.201Z,4.97
2022-09-23T09:30:01.209Z,4.70
2022-09-23T09:35:16.344Z,4.32
2022-09-23T09:40:17.875Z,3.58
2022-09-23T09:45:57.477Z,3.47
2022-09-23T09:51:18.668Z,3.75
2022-09-23T09:56:27.162Z,3.38
2022-09-23T10:01:33.522Z,3.65
2022-09-23T10:06:36.071Z,4.22
2022-09-23T10:11:38.688Z,4.35
2022-09-23T10:16:41.996Z,3.92
2022-09-23T10:21:43.510Z,3.05
2022-09-23T10:26:55.001Z,3.78
2022-09-23T10:32:21.638Z,2.58
2022-09-23T10:37:31.119Z,3.83
2022-09-23T10:43:09.423Z,3.08
2022-09-23T10:48:40.639Z,2.05
2022-09-23T10:54:03.577Z,2.17
2022-09-23T10:59:11.898Z,2.17
2022-09-23T11:04:36.949Z,3.80
2022-09-23T11:10:11.368Z,3.08
2022-09-23T11:15:54.433Z,2.55
2022-09-23T11:21:23.797Z,1.60
2022-09-23T11:26:53.497Z,3.55
2022-09-23T11:32:06.942Z,3.75
2022-09-23T11:37:14.010Z,2.03
2022-09-23T11:42:39.651Z,2.40
2022-09-23T11:47:48.618Z,2.55
2022-09-23T11:52:58.624Z,5.07
2022-09-23T11:58:23.121Z,2.58
2022-09-23T12:03:44.750Z,2.05
2022-09-23T12:08:47.125Z,2.08
2022-09-23T12:14:21.461Z,3.53
2022-09-23T12:19:28.406Z,2.33
2022-09-23T12:24:47.420Z,2.17
2022-09-23T12:29:53.815Z,2.57
2022-09-23T12:34:55.452Z,2.50
2022-09-23T12:40:02.205Z,3.00
2022-09-23T12:45:38.515Z,2.95
2022-09-23T12:50:50.771Z,0.98
2022-09-23T12:55:54.159Z,4.97
2022-09-23T13:01:28.808Z,2.17
2022-09-23T13:06:38.981Z,2.22
2022-09-23T13:11:45.175Z,1.23
2022-09-23T13:16:47.417Z,2.03
2022-09-23T13:21:49.441Z,0.82
2022-09-23T13:26:53.920Z,6.15
2022-09-23T13:31:57.750Z,9.52
2022-09-23T13:37:13.648Z,1.90
2022-09-23T13:42:28.974Z,1.83
2022-09-23T13:47:31.298Z,1.20
2022-09-23T13:52:33.293Z,5.00
2022-09-23T13:57:35.163Z,3.40
2022-09-23T14:02:42.898Z,3.83
2022-09-23T14:07:44.673Z,2.53
2022-09-23T14:12:48.639Z,2.05
2022-09-23T14:17:53.502Z,2.72
2022-09-23T14:23:13.935Z,3.00
2022-09-23T14:28:18.150Z,2.25
2022-09-23T14:33:26.530Z,3.30
2022-09-23T14:38:47.960Z,4.07
2022-09-23T14:43:59.466Z,7.25
2022-09-23T14:49:11.838Z,3.70
2022-09-23T14:54:34.502Z,3.33
2022-09-23T14:59:36.954Z,2.63
2022-09-23T15:04:38.217Z,1.85
2022-09-23T15:09:41.636Z,2.13
2022-09-23T15:14:49.291Z,4.03
2022-09-23T15:19:55.092Z,3.05
2022-09-23T15:25:16.111Z,1.80
2022-09-23T15:30:19.292Z,1.55
2022-09-23T15:35:25.498Z,3.70
2022-09-23T15:40:32.938Z,1.77
2022-09-23T15:45:40.083Z,2.92
2022-09-23T15:50:42.658Z,5.30
2022-09-23T15:55:45.155Z,3.00
2022-09-23T16:00:55.965Z,2.67
2022-09-23T16:06:02.890Z,1.95
2022-09-23T16:11:06.001Z,2.05
2022-09-23T16:16:07.891Z,2.20
2022-09-23T16:21:14.153Z,3.15
2022-09-23T16:26:22.202Z,2.78
2022-09-23T16:31:31.202Z,3.45
2022-09-23T16:36:35.730Z,2.25
2022-09-23T16:41:37.338Z,3.78
2022-09-23T16:46:40.314Z,3.45
2022-09-23T16:51:41.806Z,4.33
2022-09-23T16:56:50.329Z,3.45
2022-09-23T17:02:30.017Z,2.33
2022-09-23T17:07:34.155Z,2.92
2022-09-23T17:12:37.839Z,3.97
2022-09-23T17:17:39.129Z,4.78
2022-09-23T17:22:44.998Z,5.60
2022-09-23T17:27:51.110Z,5.78
2022-09-23T17:32:57.357Z,5.72
2022-09-23T17:43:13.825Z,3.88
2022-09-23T17:48:17.196Z,8.15
2022-09-23T17:53:18.422Z,5.65
2022-09-23T17:58:19.789Z,7.78
2022-09-23T18:03:21.393Z,4.57
2022-09-23T18:08:22.680Z,6.57
2022-09-23T18:13:23.957Z,6.68
2022-09-23T18:18:25.203Z,6.22
2022-09-23T18:23:28.542Z,9.70
2022-09-23T18:28:34.977Z,6.47
2022-09-23T18:33:36.689Z,5.28
2022-09-23T18:38:45.202Z,6.43
2022-09-23T18:43:49.335Z,6.13
2022-09-23T18:49:21.327Z,10.40
2022-09-23T18:54:33.826Z,6.45
2022-09-23T18:59:35.072Z,10.02
2022-09-23T19:04:36.336Z,12.48
2022-09-23T19:09:37.771Z,8.18
2022-09-23T19:14:39.023Z,10.02
2022-09-23T19:19:40.875Z,7.30
2022-09-23T19:24:42.158Z,9.35
2022-09-23T19:29:43.449Z,10.35
2022-09-23T19:34:46.210Z,12.15
2022-09-23T19:39:47.534Z,13.07
2022-09-23T19:44:50.155Z,12.23
2022-09-23T19:49:51.425Z,13.00
2022-09-23T19:54:52.793Z,12.20
2022-09-23T19:59:54.416Z,11.45
2022-09-23T20:04:55.681Z,10.85
2022-09-23T20:09:57.621Z,17.58
2022-09-23T20:15:00.301Z,14.13
2022-09-23T20:20:01.892Z,10.40
2022-09-23T20:25:04.103Z,12.50
2022-09-23T20:30:07.252Z,9.57
2022-09-23T20:35:08.708Z,9.07
2022-09-23T20:40:10.177Z,9.57
2022-09-23T20:45:11.489Z,7.57
2022-09-23T20:50:14.243Z,10.90
2022-09-23T20:55:16.058Z,8.43
2022-09-23T21:00:18.254Z,7.60
2022-09-23T21:05:19.502Z,8.60
2022-09-23T21:10:22.688Z,9.40
2022-09-23T21:15:24.007Z,9.77
2022-09-23T21:20:25.279Z,8.10
2022-09-23T21:25:28.281Z,8.30
2022-09-23T21:30:30.189Z,7.07
2022-09-23T21:35:31.481Z,8.00
2022-09-23T21:40:51.639Z,8.60
2022-09-23T21:46:02.166Z,7.97
2022-09-23T21:51:27.472Z,8.93
2022-09-23T21:56:31.207Z,8.45
2022-09-23T22:01:35.458Z,8.77
2022-09-23T22:06:38.391Z,8.98
2022-09-23T22:11:59.350Z,10.93
2022-09-23T22:17:02.475Z,9.68
2022-09-23T22:22:13.365Z,8.15
2022-09-23T22:27:17.391Z,7.05
2022-09-23T22:32:40.389Z,8.98
2022-09-23T22:37:41.754Z,8.60
2022-09-23T22:42:44.605Z,8.55
2022-09-23T22:47:46.129Z,11.13
2022-09-23T22:52:47.411Z,8.82
2022-09-23T22:57:50.386Z,7.75
2022-09-23T23:02:51.621Z,8.77
2022-09-23T23:07:53.120Z,8.45
2022-09-23T23:12:54.385Z,8.00
2022-09-23T23:17:57.267Z,9.38
2022-09-23T23:23:01.898Z,8.02
2022-09-23T23:28:05.522Z,9.48
2022-09-23T23:33:06.818Z,9.15
2022-09-23T23:38:10.874Z,9.10
2022-09-23T23:43:12.226Z,8.60
2022-09-23T23:48:13.793Z,9.45
2022-09-23T23:53:15.448Z,9.15
2022-09-23T23:58:17.922Z,10.30
